Time;durP1;ratioP1;P1;durP2;ratioP2;P2;SDS_P1;SDS_P2;PMS_P1;PMS_P2;Temp;Humidity;BMP_temperature;BMP_pressure;BME280_temperature;BME280_humidity;BME280_pressure;Samples;Min_cycle;Max_cycle;Signal;HPM_P1;HPM_P2
2024/02/02 00:01:12;;;;;;;24.57;6.17;;;;;;;;;;4993600;28;20282;-86
2024/02/02 00:03:40;;;;;;;20.00;6.03;;;;;;;;;;5002274;28;20285;-85
2024/02/02 00:06:05;;;;;;;24.27;6.70;;;;;;;;;;4993126;28;20227;-87
2024/02/02 00:08:31;;;;;;;23.17;6.13;;;;;;;;;;4981240;28;20591;-87
2024/02/02 00:11:02;;;;;;;22.23;6.27;;;;;;;;;;4998330;28;20296;-86
2024/02/02 00:13:29;;;;;;;20.93;5.83;;;;;;;;;;4991917;28;20215;-87
2024/02/02 00:15:55;;;;;;;23.13;6.40;;;;;;;;;;4983448;28;20238;-85
2024/02/02 00:18:21;;;;;;;22.53;6.03;;;;;;;;;;5010640;28;20225;-85
2024/02/02 00:20:46;;;;;;;17.47;5.93;;;;;;;;;;4986341;28;20720;-86
2024/02/02 00:23:14;;;;;;;22.67;6.00;;;;;;;;;;4979973;28;20263;-88
2024/02/02 00:25:40;;;;;;;20.13;5.40;;;;;;;;;;4979981;28;20223;-87
2024/02/02 00:28:06;;;;;;;17.50;5.40;;;;;;;;;;4986011;28;20594;-86
2024/02/02 00:30:37;;;;;;;18.33;4.97;;;;;;;;;;4971950;28;20220;-85
2024/02/02 00:33:07;;;;;;;17.57;5.10;;;;;;;;;;4990033;28;20300;-86
2024/02/02 00:35:35;;;;;;;18.33;5.70;;;;;;;;;;4988295;28;20216;-87
2024/02/02 00:38:00;;;;;;;16.70;4.63;;;;;;;;;;4982597;28;20891;-88
2024/02/02 00:40:29;;;;;;;16.47;5.20;;;;;;;;;;4989461;28;20589;-86
2024/02/02 00:42:54;;;;;;;21.17;5.53;;;;;;;;;;4980696;28;20240;-87
2024/02/02 00:45:23;;;;;;;20.43;5.23;;;;;;;;;;4984345;28;20229;-86
2024/02/02 00:47:49;;;;;;;16.40;4.90;;;;;;;;;;4965589;28;20246;-86
2024/02/02 00:50:15;;;;;;;21.23;5.13;;;;;;;;;;5009377;28;20223;-87
2024/02/02 00:52:41;;;;;;;17.10;4.80;;;;;;;;;;4994714;28;20210;-88
2024/02/02 00:55:09;;;;;;;23.13;4.83;;;;;;;;;;4993994;28;20297;-84
2024/02/02 00:57:35;;;;;;;23.37;4.83;;;;;;;;;;4998435;28;20216;-85
2024/02/02 01:00:10;;;;;;;20.10;4.90;;;;;;;;;;4990547;28;20243;-87
2024/02/02 01:02:39;;;;;;;19.97;4.67;;;;;;;;;;4973541;28;20230;-88
2024/02/02 01:05:09;;;;;;;15.97;4.00;;;;;;;;;;5004639;28;20220;-87
2024/02/02 01:07:35;;;;;;;17.80;4.20;;;;;;;;;;5004194;28;20212;-85
2024/02/02 01:10:01;;;;;;;18.97;4.70;;;;;;;;;;4957365;28;20244;-85
2024/02/02 01:12:29;;;;;;;19.53;4.13;;;;;;;;;;5011401;28;20220;-87
2024/02/02 01:14:54;;;;;;;16.97;4.37;;;;;;;;;;4997323;28;20674;-87
2024/02/02 01:17:24;;;;;;;21.97;4.03;;;;;;;;;;5008912;28;20224;-86
2024/02/02 01:19:50;;;;;;;17.10;4.73;;;;;;;;;;4985969;28;20296;-85
2024/02/02 01:22:16;;;;;;;16.07;3.63;;;;;;;;;;4982109;28;20213;-85
2024/02/02 01:24:42;;;;;;;17.60;3.27;;;;;;;;;;4991840;28;20247;-84
2024/02/02 01:27:10;;;;;;;20.77;3.93;;;;;;;;;;4973735;28;20216;-84
2024/02/02 01:29:38;;;;;;;26.53;4.43;;;;;;;;;;4996921;28;20228;-84
2024/02/02 01:32:04;;;;;;;23.20;4.80;;;;;;;;;;4992614;28;20290;-84
2024/02/02 01:34:35;;;;;;;12.77;3.70;;;;;;;;;;4983350;28;20217;-84
2024/02/02 01:37:00;;;;;;;18.70;3.87;;;;;;;;;;4970719;28;20602;-84
2024/02/02 01:39:26;;;;;;;14.67;3.87;;;;;;;;;;4991780;28;20217;-84
2024/02/02 01:41:51;;;;;;;19.10;4.50;;;;;;;;;;4995247;28;20243;-84
2024/02/02 01:44:17;;;;;;;21.83;5.03;;;;;;;;;;5001183;28;20248;-85
2024/02/02 01:46:51;;;;;;;19.63;4.20;;;;;;;;;;4983624;28;20247;-86
2024/02/02 01:49:19;;;;;;;18.50;4.07;;;;;;;;;;5008244;28;20227;-86
2024/02/02 01:51:45;;;;;;;18.23;4.20;;;;;;;;;;4977449;28;20212;-85
2024/02/02 01:54:13;;;;;;;19.00;5.17;;;;;;;;;;5013174;28;20254;-85
2024/02/02 01:56:40;;;;;;;15.53;4.67;;;;;;;;;;5009875;28;20208;-84
2024/02/02 01:59:09;;;;;;;19.87;4.87;;;;;;;;;;4976740;28;20221;-86
2024/02/02 02:01:34;;;;;;;16.00;4.93;;;;;;;;;;4989798;28;20215;-86
2024/02/02 02:04:01;;;;;;;20.13;5.63;;;;;;;;;;4986262;28;20236;-85
2024/02/02 02:06:30;;;;;;;19.43;5.63;;;;;;;;;;5002976;28;20357;-85
2024/02/02 02:08:58;;;;;;;18.23;5.67;;;;;;;;;;4963871;28;20331;-84
2024/02/02 02:11:23;;;;;;;21.10;6.10;;;;;;;;;;4964319;28;20309;-84
2024/02/02 02:13:49;;;;;;;17.40;5.60;;;;;;;;;;4993973;28;20235;-85
2024/02/02 02:16:19;;;;;;;23.20;6.20;;;;;;;;;;5000280;28;20693;-84
2024/02/02 02:18:45;;;;;;;17.07;5.70;;;;;;;;;;4966852;28;20217;-86
2024/02/02 02:21:25;;;;;;;25.07;6.43;;;;;;;;;;4985611;28;20428;-86
2024/02/02 02:23:50;;;;;;;22.93;6.17;;;;;;;;;;5000546;28;20233;-86
2024/02/02 02:26:17;;;;;;;26.27;6.50;;;;;;;;;;4994988;28;20211;-85
2024/02/02 02:28:45;;;;;;;19.17;6.47;;;;;;;;;;5008663;28;20220;-83
2024/02/02 02:31:12;;;;;;;26.20;6.87;;;;;;;;;;4985159;28;20219;-85
2024/02/02 02:33:40;;;;;;;20.83;6.40;;;;;;;;;;4988521;28;20255;-85
2024/02/02 02:36:08;;;;;;;17.50;6.23;;;;;;;;;;4991628;28;20196;-85
2024/02/02 02:38:39;;;;;;;23.63;7.17;;;;;;;;;;4993866;28;20330;-85
2024/02/02 02:41:05;;;;;;;22.00;7.00;;;;;;;;;;4981019;28;20228;-87
2024/02/02 02:43:32;;;;;;;21.37;7.40;;;;;;;;;;4991142;28;20240;-85
2024/02/02 02:45:58;;;;;;;19.03;7.07;;;;;;;;;;4986195;28;20220;-86
2024/02/02 02:48:23;;;;;;;22.17;7.27;;;;;;;;;;4984191;28;20224;-85
2024/02/02 02:50:49;;;;;;;21.40;7.50;;;;;;;;;;4962951;28;20235;-86
2024/02/02 02:53:15;;;;;;;24.07;7.40;;;;;;;;;;4983617;28;20586;-86
2024/02/02 02:55:41;;;;;;;22.60;7.50;;;;;;;;;;4980201;28;20227;-86
2024/02/02 02:58:12;;;;;;;26.67;8.33;;;;;;;;;;4983773;28;20228;-87
2024/02/02 03:00:37;;;;;;;24.13;7.40;;;;;;;;;;4978443;28;20653;-85
2024/02/02 03:03:03;;;;;;;26.30;7.93;;;;;;;;;;4968064;28;20224;-85
2024/02/02 03:05:31;;;;;;;23.73;8.13;;;;;;;;;;4987609;28;20251;-85
2024/02/02 03:07:56;;;;;;;25.73;8.60;;;;;;;;;;4972677;28;20220;-86
2024/02/02 03:10:25;;;;;;;27.10;8.67;;;;;;;;;;4980123;28;20591;-86
2024/02/02 03:12:51;;;;;;;24.57;8.53;;;;;;;;;;4990127;28;20224;-86
2024/02/02 03:15:20;;;;;;;28.00;8.57;;;;;;;;;;4988564;28;20224;-86
2024/02/02 03:17:47;;;;;;;20.37;8.27;;;;;;;;;;4996095;28;20223;-85
2024/02/02 03:20:13;;;;;;;30.40;8.50;;;;;;;;;;4983900;28;20228;-85
2024/02/02 03:22:38;;;;;;;24.40;8.87;;;;;;;;;;5001742;28;20238;-87
2024/02/02 03:25:08;;;;;;;26.93;8.30;;;;;;;;;;4991676;28;20314;-85
2024/02/02 03:27:37;;;;;;;22.87;8.40;;;;;;;;;;4965935;28;20228;-84
2024/02/02 03:30:07;;;;;;;22.73;9.17;;;;;;;;;;4968558;28;20213;-84
2024/02/02 03:32:32;;;;;;;23.70;8.53;;;;;;;;;;4963558;28;20239;-84
2024/02/02 03:34:58;;;;;;;22.83;10.50;;;;;;;;;;4978188;28;20222;-83
2024/02/02 03:37:26;;;;;;;27.50;10.07;;;;;;;;;;4977288;28;20286;-84
2024/02/02 03:39:51;;;;;;;26.97;10.50;;;;;;;;;;4983495;28;20716;-84
2024/02/02 03:42:17;;;;;;;26.63;10.07;;;;;;;;;;5000841;28;20207;-85
2024/02/02 03:44:42;;;;;;;27.00;10.07;;;;;;;;;;4998137;28;20228;-85
2024/02/02 03:47:08;;;;;;;32.30;10.40;;;;;;;;;;4988826;28;20216;-85
2024/02/02 03:49:34;;;;;;;22.20;9.77;;;;;;;;;;4999380;28;20230;-86
2024/02/02 03:52:06;;;;;;;28.20;10.40;;;;;;;;;;4978913;28;20224;-85
2024/02/02 03:54:32;;;;;;;21.43;10.00;;;;;;;;;;4985388;28;20224;-85
2024/02/02 03:56:57;;;;;;;24.70;10.40;;;;;;;;;;4989678;28;20238;-86
2024/02/02 04:03:15;;;;;;;27.93;11.03;;;;;;;;;;5021939;28;20235;-85
2024/02/02 04:05:41;;;;;;;26.93;10.97;;;;;;;;;;4972669;28;20219;-85
2024/02/02 04:08:07;;;;;;;29.17;11.07;;;;;;;;;;4991264;28;20218;-84
2024/02/02 04:10:34;;;;;;;24.80;11.87;;;;;;;;;;4987978;28;20351;-84
2024/02/02 04:13:02;;;;;;;31.97;11.27;;;;;;;;;;4988985;28;20960;-85
2024/02/02 04:15:29;;;;;;;26.27;12.43;;;;;;;;;;4985268;28;20307;-84
2024/02/02 04:17:55;;;;;;;22.60;11.70;;;;;;;;;;4976132;28;20217;-87
2024/02/02 04:20:20;;;;;;;26.70;11.83;;;;;;;;;;4991081;28;20227;-85
2024/02/02 04:22:48;;;;;;;29.77;13.03;;;;;;;;;;4978423;28;20239;-86
2024/02/02 04:25:14;;;;;;;24.13;11.17;;;;;;;;;;4996513;28;20254;-87
2024/02/02 04:27:42;;;;;;;29.23;12.03;;;;;;;;;;4988605;28;20210;-87
2024/02/02 04:30:10;;;;;;;31.67;12.13;;;;;;;;;;4989966;28;20220;-87
2024/02/02 04:32:36;;;;;;;27.00;11.63;;;;;;;;;;4995816;28;20215;-86
2024/02/02 04:35:01;;;;;;;24.10;11.83;;;;;;;;;;4989033;28;20251;-85
2024/02/02 04:37:27;;;;;;;29.73;12.70;;;;;;;;;;4994256;28;20320;-86
2024/02/02 04:39:52;;;;;;;37.30;12.77;;;;;;;;;;4978795;28;20244;-85
2024/02/02 04:42:18;;;;;;;32.43;14.30;;;;;;;;;;4993128;28;20236;-86
2024/02/02 04:44:44;;;;;;;29.90;12.83;;;;;;;;;;4979919;28;20224;-78
2024/02/02 04:47:11;;;;;;;24.63;12.47;;;;;;;;;;4981297;28;20213;-78
2024/02/02 04:49:39;;;;;;;28.70;12.47;;;;;;;;;;4984877;28;20212;-79
2024/02/02 04:52:05;;;;;;;30.93;12.47;;;;;;;;;;4970054;28;20220;-78
2024/02/02 04:54:32;;;;;;;27.73;12.47;;;;;;;;;;4990482;28;20232;-79
2024/02/02 04:56:58;;;;;;;24.03;11.70;;;;;;;;;;5007003;28;20216;-78
2024/02/02 04:59:24;;;;;;;28.73;11.30;;;;;;;;;;4982477;28;20228;-77
2024/02/02 05:01:54;;;;;;;24.60;11.33;;;;;;;;;;5008661;28;20239;-78
2024/02/02 05:04:19;;;;;;;24.90;11.40;;;;;;;;;;4987520;28;20224;-78
2024/02/02 05:06:47;;;;;;;24.23;10.53;;;;;;;;;;5004065;28;20221;-78
2024/02/02 05:09:13;;;;;;;23.60;10.97;;;;;;;;;;5009710;28;20231;-77
2024/02/02 05:11:38;;;;;;;24.37;10.53;;;;;;;;;;4994470;28;20224;-78
2024/02/02 05:14:06;;;;;;;22.50;10.60;;;;;;;;;;5008666;28;20228;-78
2024/02/02 05:16:34;;;;;;;29.07;10.93;;;;;;;;;;4989888;28;20225;-77
2024/02/02 05:19:00;;;;;;;22.67;9.63;;;;;;;;;;5011601;28;20228;-78
2024/02/02 05:21:26;;;;;;;24.43;10.20;;;;;;;;;;4991375;28;20698;-78
2024/02/02 05:23:52;;;;;;;25.50;10.43;;;;;;;;;;4993597;28;20236;-78
2024/02/02 05:26:20;;;;;;;22.07;10.13;;;;;;;;;;4994829;28;20219;-79
2024/02/02 05:28:45;;;;;;;24.03;9.30;;;;;;;;;;5012076;28;20221;-78
2024/02/02 05:31:11;;;;;;;21.33;9.20;;;;;;;;;;5000176;28;20278;-79
2024/02/02 05:33:36;;;;;;;24.70;9.57;;;;;;;;;;4991263;28;21039;-79
2024/02/02 05:36:02;;;;;;;23.17;9.27;;;;;;;;;;4983312;28;20736;-78
2024/02/02 05:38:30;;;;;;;22.33;9.50;;;;;;;;;;5015576;28;20870;-78
2024/02/02 05:41:00;;;;;;;24.60;9.47;;;;;;;;;;4994884;28;20220;-79
2024/02/02 05:43:30;;;;;;;24.00;9.33;;;;;;;;;;4991446;28;20310;-79
2024/02/02 05:45:56;;;;;;;22.00;9.00;;;;;;;;;;4998457;28;20233;-78
2024/02/02 05:48:21;;;;;;;21.63;10.40;;;;;;;;;;5006485;28;20236;-78
2024/02/02 05:50:47;;;;;;;25.80;10.60;;;;;;;;;;4985577;28;20704;-78
2024/02/02 05:53:15;;;;;;;21.53;9.93;;;;;;;;;;5018160;28;20213;-79
2024/02/02 05:55:43;;;;;;;22.40;10.77;;;;;;;;;;5017318;28;20307;-78
2024/02/02 05:58:09;;;;;;;27.30;11.43;;;;;;;;;;4984591;28;20208;-78
2024/02/02 06:00:35;;;;;;;27.70;11.00;;;;;;;;;;5014159;28;20278;-79
2024/02/02 06:03:02;;;;;;;25.07;11.03;;;;;;;;;;5007937;28;20220;-80
2024/02/02 06:05:29;;;;;;;25.07;11.17;;;;;;;;;;4970892;28;20229;-78
2024/02/02 06:07:55;;;;;;;26.20;12.47;;;;;;;;;;4986181;28;20224;-78
2024/02/02 06:10:20;;;;;;;25.80;11.83;;;;;;;;;;4977577;28;20227;-78
2024/02/02 06:12:50;;;;;;;27.10;11.47;;;;;;;;;;5011916;28;20553;-79
2024/02/02 06:15:16;;;;;;;27.03;11.77;;;;;;;;;;4987290;28;20220;-78
2024/02/02 06:17:45;;;;;;;21.67;11.50;;;;;;;;;;5003127;28;20236;-78
2024/02/02 06:20:11;;;;;;;23.73;11.80;;;;;;;;;;5024595;28;20921;-78
2024/02/02 06:22:41;;;;;;;28.23;11.97;;;;;;;;;;4979238;28;20263;-78
2024/02/02 06:25:09;;;;;;;24.20;12.13;;;;;;;;;;4994778;28;20220;-79
2024/02/02 06:27:36;;;;;;;24.63;11.63;;;;;;;;;;5001362;28;20221;-79
2024/02/02 06:30:07;;;;;;;25.73;11.57;;;;;;;;;;5006682;28;20220;-77
2024/02/02 06:32:35;;;;;;;24.80;11.83;;;;;;;;;;4986565;28;20227;-76
2024/02/02 06:35:02;;;;;;;26.80;11.50;;;;;;;;;;4986912;28;20221;-78
2024/02/02 06:37:27;;;;;;;21.93;11.10;;;;;;;;;;5008396;28;20637;-78
2024/02/02 06:39:56;;;;;;;24.20;11.80;;;;;;;;;;4987294;28;20216;-78
2024/02/02 06:42:26;;;;;;;24.77;11.70;;;;;;;;;;4962312;28;20672;-78
2024/02/02 06:44:54;;;;;;;29.77;11.20;;;;;;;;;;4996018;28;20229;-77
2024/02/02 06:47:23;;;;;;;27.13;11.50;;;;;;;;;;4993933;28;20347;-77
2024/02/02 06:49:49;;;;;;;25.13;11.17;;;;;;;;;;4985559;28;20237;-79
2024/02/02 06:52:17;;;;;;;22.47;11.67;;;;;;;;;;4988749;28;20216;-78
2024/02/02 06:54:45;;;;;;;21.60;11.20;;;;;;;;;;4995572;28;20244;-76
2024/02/02 06:57:11;;;;;;;29.73;12.07;;;;;;;;;;4972751;28;20243;-78
2024/02/02 06:59:41;;;;;;;22.20;10.67;;;;;;;;;;4998442;28;20290;-80
2024/02/02 07:02:17;;;;;;;24.27;11.23;;;;;;;;;;4991268;28;20223;-78
2024/02/02 07:04:43;;;;;;;23.77;11.00;;;;;;;;;;5002133;28;20228;-78
2024/02/02 07:07:08;;;;;;;21.90;10.77;;;;;;;;;;4981763;28;20216;-78
2024/02/02 07:09:37;;;;;;;19.87;10.53;;;;;;;;;;4988746;28;20224;-78
2024/02/02 07:12:09;;;;;;;20.60;10.87;;;;;;;;;;4991374;28;20224;-78
2024/02/02 07:14:43;;;;;;;18.63;10.23;;;;;;;;;;4987906;28;20224;-78
2024/02/02 07:17:36;;;;;;;21.13;11.07;;;;;;;;;;5003904;28;20219;-78
2024/02/02 07:20:05;;;;;;;23.53;9.77;;;;;;;;;;4999378;28;20221;-78
2024/02/02 07:22:37;;;;;;;24.40;10.63;;;;;;;;;;4974107;28;20243;-78
2024/02/02 07:25:13;;;;;;;21.60;9.77;;;;;;;;;;5005857;28;20232;-78
2024/02/02 07:27:51;;;;;;;21.67;10.20;;;;;;;;;;4992939;28;20223;-80
2024/02/02 07:30:44;;;;;;;20.40;10.10;;;;;;;;;;4994263;28;20264;-78
2024/02/02 07:33:31;;;;;;;17.67;9.80;;;;;;;;;;5001012;28;20224;-80
2024/02/02 07:35:59;;;;;;;20.77;9.17;;;;;;;;;;4994142;28;20290;-78
2024/02/02 07:38:51;;;;;;;20.77;10.17;;;;;;;;;;4983334;28;20207;-77
2024/02/02 07:41:18;;;;;;;22.77;9.93;;;;;;;;;;4992419;28;20216;-79
2024/02/02 07:43:47;;;;;;;21.23;10.53;;;;;;;;;;4991440;28;20228;-78
2024/02/02 07:46:12;;;;;;;21.37;9.60;;;;;;;;;;4976392;28;20252;-78
2024/02/02 07:48:39;;;;;;;21.03;10.13;;;;;;;;;;5017170;28;20247;-78
2024/02/02 07:51:07;;;;;;;20.70;9.43;;;;;;;;;;4993738;28;20228;-83
2024/02/02 07:53:33;;;;;;;22.13;10.30;;;;;;;;;;4982350;28;20224;-77
2024/02/02 07:55:59;;;;;;;24.07;10.00;;;;;;;;;;4991561;28;20322;-79
2024/02/02 07:58:24;;;;;;;18.07;9.57;;;;;;;;;;4983481;28;20221;-77
2024/02/02 08:00:50;;;;;;;19.87;9.00;;;;;;;;;;5002107;28;20220;-77
2024/02/02 08:03:16;;;;;;;23.63;9.30;;;;;;;;;;4996912;28;20772;-78
2024/02/02 08:05:41;;;;;;;16.77;9.43;;;;;;;;;;4979889;28;20235;-78
2024/02/02 08:08:09;;;;;;;17.73;9.30;;;;;;;;;;4989040;28;20232;-78
2024/02/02 08:10:35;;;;;;;14.93;9.27;;;;;;;;;;4998987;28;20213;-78
2024/02/02 08:13:03;;;;;;;19.73;9.67;;;;;;;;;;5011602;28;20220;-79
2024/02/02 08:15:28;;;;;;;21.77;10.03;;;;;;;;;;4997036;28;20220;-77
2024/02/02 08:17:54;;;;;;;20.40;9.77;;;;;;;;;;5020004;28;20239;-79
2024/02/02 08:20:19;;;;;;;19.57;9.97;;;;;;;;;;5002170;28;20227;-78
2024/02/02 08:22:46;;;;;;;20.47;10.23;;;;;;;;;;4984661;28;20231;-78
2024/02/02 08:25:14;;;;;;;18.33;9.33;;;;;;;;;;4989419;28;20229;-79
2024/02/02 08:27:40;;;;;;;19.47;10.07;;;;;;;;;;4986449;28;20222;-77
2024/02/02 08:30:07;;;;;;;21.87;10.63;;;;;;;;;;4998367;28;20664;-79
2024/02/02 08:32:37;;;;;;;18.13;10.13;;;;;;;;;;4982784;28;20217;-78
2024/02/02 08:35:02;;;;;;;21.60;9.97;;;;;;;;;;4992294;28;20240;-78
2024/02/02 08:37:30;;;;;;;21.17;10.57;;;;;;;;;;5005734;28;20220;-78
2024/02/02 08:39:56;;;;;;;16.27;10.70;;;;;;;;;;4999999;28;20225;-78
2024/02/02 08:42:25;;;;;;;23.40;11.03;;;;;;;;;;4976657;28;20719;-78
2024/02/02 08:44:51;;;;;;;22.33;11.67;;;;;;;;;;5002685;28;20282;-78
2024/02/02 08:47:21;;;;;;;21.63;10.50;;;;;;;;;;4995748;28;20216;-79
2024/02/02 08:49:55;;;;;;;21.23;11.10;;;;;;;;;;4998996;28;20227;-80
2024/02/02 08:52:34;;;;;;;21.87;11.43;;;;;;;;;;5003697;28;20213;-79
2024/02/02 08:55:03;;;;;;;23.03;11.47;;;;;;;;;;5014064;28;20788;-77
2024/02/02 08:57:39;;;;;;;22.80;11.93;;;;;;;;;;4962406;28;20242;-77
2024/02/02 09:00:14;;;;;;;22.70;11.70;;;;;;;;;;4991637;28;20223;-78
2024/02/02 09:03:05;;;;;;;21.20;11.87;;;;;;;;;;4992621;28;20336;-78
2024/02/02 09:05:51;;;;;;;20.37;12.50;;;;;;;;;;4993419;28;20247;-78
2024/02/02 09:08:16;;;;;;;24.47;12.30;;;;;;;;;;4995680;28;20224;-79
2024/02/02 09:10:45;;;;;;;22.93;13.17;;;;;;;;;;5017452;28;20290;-77
2024/02/02 09:13:29;;;;;;;19.93;12.03;;;;;;;;;;4994928;28;20917;-78
2024/02/02 09:15:55;;;;;;;25.23;12.60;;;;;;;;;;4986988;28;20324;-78
2024/02/02 09:18:31;;;;;;;21.83;11.40;;;;;;;;;;4991901;28;20599;-81
2024/02/02 09:20:58;;;;;;;23.13;12.37;;;;;;;;;;5009343;28;20231;-80
2024/02/02 09:23:24;;;;;;;19.93;12.00;;;;;;;;;;5022863;28;20542;-81
2024/02/02 09:25:50;;;;;;;20.30;12.27;;;;;;;;;;4978070;28;20228;-80
2024/02/02 09:28:24;;;;;;;24.33;13.10;;;;;;;;;;4998649;28;20599;-79
2024/02/02 09:31:06;;;;;;;23.07;13.03;;;;;;;;;;5029064;28;20285;-80
2024/02/02 09:33:32;;;;;;;21.97;12.57;;;;;;;;;;5003754;28;20291;-80
2024/02/02 09:35:58;;;;;;;21.50;13.20;;;;;;;;;;5004270;28;20950;-80
2024/02/02 09:38:24;;;;;;;24.17;12.27;;;;;;;;;;5004846;28;20771;-80
2024/02/02 09:40:58;;;;;;;23.83;13.13;;;;;;;;;;4986863;28;20331;-78
2024/02/02 09:43:33;;;;;;;28.13;13.13;;;;;;;;;;5010725;28;20243;-80
2024/02/02 09:46:30;;;;;;;24.63;12.47;;;;;;;;;;5010513;28;20223;-81
2024/02/02 09:48:59;;;;;;;18.57;13.40;;;;;;;;;;4996507;28;20252;-78
2024/02/02 09:51:40;;;;;;;21.57;12.97;;;;;;;;;;4999990;28;20995;-78
2024/02/02 09:54:22;;;;;;;21.83;11.90;;;;;;;;;;5028690;28;20300;-80
2024/02/02 09:57:03;;;;;;;19.80;12.30;;;;;;;;;;5003081;28;20216;-78
2024/02/02 09:59:52;;;;;;;24.10;13.30;;;;;;;;;;4991552;28;20222;-80
2024/02/02 10:02:52;;;;;;;25.47;13.33;;;;;;;;;;4997314;28;20322;-78
2024/02/02 10:05:29;;;;;;;21.73;12.77;;;;;;;;;;5000371;28;20295;-78
2024/02/02 10:08:34;;;;;;;24.90;13.00;;;;;;;;;;4995264;28;20231;-78
2024/02/02 10:11:11;;;;;;;26.80;13.77;;;;;;;;;;4959524;28;20222;-78
2024/02/02 10:13:47;;;;;;;24.03;13.10;;;;;;;;;;4957864;28;20773;-79
2024/02/02 10:16:43;;;;;;;23.27;13.07;;;;;;;;;;4963982;28;20255;-78
2024/02/02 10:19:19;;;;;;;23.77;12.40;;;;;;;;;;5021519;28;20339;-79
2024/02/02 10:22:23;;;;;;;25.60;13.03;;;;;;;;;;5010740;28;20220;-79
2024/02/02 10:25:15;;;;;;;22.67;12.47;;;;;;;;;;4988993;28;20232;-80
2024/02/02 10:28:00;;;;;;;23.97;13.47;;;;;;;;;;5016923;28;20745;-79
2024/02/02 10:30:32;;;;;;;19.17;11.37;;;;;;;;;;5022487;28;20249;-79
2024/02/02 10:33:20;;;;;;;23.77;12.57;;;;;;;;;;4962755;28;20716;-78
2024/02/02 10:35:45;;;;;;;22.97;12.40;;;;;;;;;;5021368;28;20244;-78
2024/02/02 10:38:31;;;;;;;24.47;13.23;;;;;;;;;;4994114;28;20217;-79
2024/02/02 10:41:31;;;;;;;20.63;12.50;;;;;;;;;;5014600;28;20228;-78
2024/02/02 10:44:13;;;;;;;27.63;12.87;;;;;;;;;;5004254;28;20786;-78
2024/02/02 10:47:12;;;;;;;17.50;12.30;;;;;;;;;;4982218;28;20304;-77
2024/02/02 10:49:55;;;;;;;23.00;13.23;;;;;;;;;;4987956;28;20224;-77
2024/02/02 10:52:58;;;;;;;25.67;13.27;;;;;;;;;;4992990;28;20757;-77
2024/02/02 10:55:43;;;;;;;23.80;14.13;;;;;;;;;;5018773;28;20351;-81
2024/02/02 10:58:22;;;;;;;25.10;14.40;;;;;;;;;;5009979;28;20673;-80
2024/02/02 11:00:54;;;;;;;27.33;14.30;;;;;;;;;;4994958;28;20227;-79
2024/02/02 11:03:33;;;;;;;22.87;12.33;;;;;;;;;;4993028;28;20225;-79
2024/02/02 11:06:06;;;;;;;24.07;13.67;;;;;;;;;;4999519;28;20220;-79
2024/02/02 11:08:35;;;;;;;26.43;12.77;;;;;;;;;;5010565;28;20243;-78
2024/02/02 11:11:03;;;;;;;25.37;13.27;;;;;;;;;;4990773;28;20254;-81
2024/02/02 11:13:35;;;;;;;25.93;13.83;;;;;;;;;;4987452;28;20232;-80
2024/02/02 11:16:21;;;;;;;26.10;15.17;;;;;;;;;;5003443;28;20255;-80
2024/02/02 11:19:06;;;;;;;29.30;14.67;;;;;;;;;;4998231;28;20220;-80
2024/02/02 11:21:53;;;;;;;24.37;13.20;;;;;;;;;;4976151;28;20728;-80
2024/02/02 11:24:58;;;;;;;21.50;13.70;;;;;;;;;;5021920;28;20243;-79
2024/02/02 11:27:41;;;;;;;26.10;14.13;;;;;;;;;;5022069;28;20225;-82
2024/02/02 11:30:07;;;;;;;24.13;13.67;;;;;;;;;;4987445;28;20235;-81
2024/02/02 11:32:57;;;;;;;29.63;12.53;;;;;;;;;;4989491;28;20212;-80
2024/02/02 11:36:00;;;;;;;26.93;14.07;;;;;;;;;;4984939;28;20236;-79
2024/02/02 11:38:47;;;;;;;31.67;15.67;;;;;;;;;;4993046;28;20224;-81
2024/02/02 11:41:16;;;;;;;23.63;14.37;;;;;;;;;;5019069;28;20221;-80
2024/02/02 11:43:42;;;;;;;24.37;13.53;;;;;;;;;;4983006;28;20228;-79
2024/02/02 11:46:08;;;;;;;30.03;14.07;;;;;;;;;;4965342;28;20279;-80
2024/02/02 11:48:39;;;;;;;28.57;15.83;;;;;;;;;;4998765;28;20222;-81
2024/02/02 11:51:05;;;;;;;24.60;15.83;;;;;;;;;;4970245;28;20239;-81
2024/02/02 11:53:50;;;;;;;24.57;15.60;;;;;;;;;;5002684;28;20292;-81
2024/02/02 11:56:29;;;;;;;27.00;14.83;;;;;;;;;;4992956;28;20266;-78
2024/02/02 11:59:04;;;;;;;26.17;14.13;;;;;;;;;;4999038;28;20216;-82
2024/02/02 12:01:59;;;;;;;28.97;15.43;;;;;;;;;;5000738;28;20281;-78
2024/02/02 12:04:40;;;;;;;26.83;15.67;;;;;;;;;;4990182;28;20237;-80
2024/02/02 12:07:10;;;;;;;26.03;15.60;;;;;;;;;;4984370;28;20273;-80
2024/02/02 12:09:41;;;;;;;25.53;14.97;;;;;;;;;;5003577;28;20969;-78
2024/02/02 12:12:10;;;;;;;28.60;15.13;;;;;;;;;;4987460;28;20311;-80
2024/02/02 12:14:38;;;;;;;29.77;17.27;;;;;;;;;;4991806;28;20223;-79
2024/02/02 12:17:10;;;;;;;27.13;16.20;;;;;;;;;;4980471;28;20220;-79
2024/02/02 12:19:35;;;;;;;27.63;16.00;;;;;;;;;;4984793;28;20261;-80
2024/02/02 12:22:09;;;;;;;24.90;15.90;;;;;;;;;;4972491;28;20223;-78
2024/02/02 12:24:34;;;;;;;28.97;15.67;;;;;;;;;;5000215;28;20228;-80
2024/02/02 12:27:00;;;;;;;26.60;16.50;;;;;;;;;;4999521;28;20218;-81
2024/02/02 12:29:25;;;;;;;31.00;17.33;;;;;;;;;;4986300;28;20227;-80
2024/02/02 12:31:51;;;;;;;30.23;16.60;;;;;;;;;;4967290;28;20213;-79
2024/02/02 12:34:16;;;;;;;26.43;16.20;;;;;;;;;;4986650;28;20253;-80
2024/02/02 12:36:44;;;;;;;27.93;16.23;;;;;;;;;;4992482;28;20306;-78
2024/02/02 12:39:10;;;;;;;30.60;18.13;;;;;;;;;;4999707;28;20220;-77
2024/02/02 12:41:39;;;;;;;30.20;16.83;;;;;;;;;;4981110;28;20216;-78
2024/02/02 12:44:07;;;;;;;28.17;17.53;;;;;;;;;;4975546;28;20720;-78
2024/02/02 12:46:47;;;;;;;27.17;17.07;;;;;;;;;;4991220;28;20212;-81
2024/02/02 12:49:14;;;;;;;28.00;17.60;;;;;;;;;;5018061;28;20297;-78
2024/02/02 12:51:42;;;;;;;28.03;17.97;;;;;;;;;;5001831;28;20729;-80
2024/02/02 12:54:09;;;;;;;31.30;17.90;;;;;;;;;;5008412;28;20600;-80
2024/02/02 12:56:34;;;;;;;29.63;18.23;;;;;;;;;;4985775;28;20311;-80
2024/02/02 12:59:00;;;;;;;29.03;16.93;;;;;;;;;;4988173;28;20255;-77
2024/02/02 13:01:26;;;;;;;26.50;17.90;;;;;;;;;;4987406;28;21137;-80
2024/02/02 13:03:55;;;;;;;32.60;19.00;;;;;;;;;;4973766;28;20696;-78
2024/02/02 13:06:21;;;;;;;28.73;18.13;;;;;;;;;;5000707;28;20253;-79
2024/02/02 13:08:53;;;;;;;31.43;18.60;;;;;;;;;;5002993;28;20537;-79
2024/02/02 13:11:19;;;;;;;29.97;19.07;;;;;;;;;;4992001;28;20220;-80
2024/02/02 13:13:45;;;;;;;35.90;19.10;;;;;;;;;;4961517;28;20220;-78
2024/02/02 13:16:28;;;;;;;31.87;19.23;;;;;;;;;;5016575;28;20236;-80
2024/02/02 13:18:54;;;;;;;34.30;19.07;;;;;;;;;;4979807;28;20230;-78
2024/02/02 13:21:24;;;;;;;27.57;18.63;;;;;;;;;;4991796;28;20217;-78
2024/02/02 13:23:59;;;;;;;29.60;18.87;;;;;;;;;;5030799;28;20234;-77
2024/02/02 13:26:37;;;;;;;30.63;18.87;;;;;;;;;;4997244;28;20211;-79
2024/02/02 13:29:07;;;;;;;28.10;17.60;;;;;;;;;;4986058;28;20691;-79
2024/02/02 13:31:35;;;;;;;31.50;18.57;;;;;;;;;;4994794;28;20558;-79
2024/02/02 13:34:04;;;;;;;28.60;18.37;;;;;;;;;;5015298;28;20239;-80
2024/02/02 13:36:30;;;;;;;29.73;20.23;;;;;;;;;;4963538;28;20688;-78
2024/02/02 13:38:56;;;;;;;28.77;18.40;;;;;;;;;;4979034;28;20253;-80
2024/02/02 13:41:26;;;;;;;31.30;19.53;;;;;;;;;;4988306;28;20221;-79
2024/02/02 13:43:58;;;;;;;27.93;18.83;;;;;;;;;;4987383;28;20252;-79
2024/02/02 13:46:26;;;;;;;30.87;19.17;;;;;;;;;;4980572;28;20307;-77
2024/02/02 13:48:57;;;;;;;35.73;18.90;;;;;;;;;;4975490;28;20278;-78
2024/02/02 13:51:24;;;;;;;33.57;19.93;;;;;;;;;;5003155;28;20292;-78
2024/02/02 13:53:52;;;;;;;31.60;20.03;;;;;;;;;;5001693;28;20307;-78
2024/02/02 13:56:21;;;;;;;29.57;19.87;;;;;;;;;;4980837;28;20224;-79
2024/02/02 13:58:47;;;;;;;30.30;19.93;;;;;;;;;;4975220;28;20221;-79
2024/02/02 14:01:17;;;;;;;32.33;19.70;;;;;;;;;;4991202;28;20220;-79
2024/02/02 14:03:47;;;;;;;28.97;19.43;;;;;;;;;;5017681;28;20228;-79
2024/02/02 14:06:13;;;;;;;30.27;19.67;;;;;;;;;;4990937;28;20767;-79
2024/02/02 14:08:43;;;;;;;33.20;19.83;;;;;;;;;;4986564;28;20601;-77
2024/02/02 14:11:09;;;;;;;30.10;19.57;;;;;;;;;;4994438;28;20227;-79
2024/02/02 14:13:35;;;;;;;36.07;20.33;;;;;;;;;;4994173;28;20221;-77
2024/02/02 14:16:05;;;;;;;31.07;18.57;;;;;;;;;;4978473;28;20239;-79
2024/02/02 14:18:31;;;;;;;25.10;17.73;;;;;;;;;;4991042;28;20896;-79
2024/02/02 14:21:13;;;;;;;33.13;19.77;;;;;;;;;;5010405;28;20231;-77
2024/02/02 14:23:39;;;;;;;34.17;20.90;;;;;;;;;;4986062;28;20233;-78
2024/02/02 14:26:07;;;;;;;35.57;18.87;;;;;;;;;;4971906;28;20295;-79
2024/02/02 14:28:32;;;;;;;28.47;18.80;;;;;;;;;;5005447;28;20688;-79
2024/02/02 14:31:04;;;;;;;24.77;16.67;;;;;;;;;;5006983;28;20216;-79
2024/02/02 14:33:34;;;;;;;33.77;20.60;;;;;;;;;;5008339;28;20236;-78
2024/02/02 14:36:03;;;;;;;29.57;18.73;;;;;;;;;;4987891;28;20224;-79
2024/02/02 14:38:28;;;;;;;31.67;20.53;;;;;;;;;;4978650;28;20229;-77
2024/02/02 14:40:54;;;;;;;35.43;20.60;;;;;;;;;;5013558;28;20230;-78
2024/02/02 14:43:21;;;;;;;31.53;19.97;;;;;;;;;;4976745;28;20224;-79